sensor_id;sensor_type;location;lat;lon;timestamp;P1;durP1;ratioP1;P2;durP2;ratioP2
8225;SDS011;4154;48.810;9.012;2023-11-19T00:00:54;2.00;;;1.80;;
8225;SDS011;4154;48.810;9.012;2023-11-19T00:03:20;1.83;;;1.73;;
8225;SDS011;4154;48.810;9.012;2023-11-19T00:05:45;3.30;;;1.90;;
8225;SDS011;4154;48.810;9.012;2023-11-19T00:08:11;1.80;;;1.70;;
8225;SDS011;4154;48.810;9.012;2023-11-19T00:10:36;1.90;;;1.80;;
8225;SDS011;4154;48.810;9.012;2023-11-19T00:13:02;1.80;;;1.70;;
8225;SDS011;4154;48.810;9.012;2023-11-19T00:15:28;2.00;;;1.90;;
8225;SDS011;4154;48.810;9.012;2023-11-19T00:17:54;2.43;;;2.00;;
8225;SDS011;4154;48.810;9.012;2023-11-19T00:20:20;2.00;;;1.80;;
8225;SDS011;4154;48.810;9.012;2023-11-19T00:22:49;1.70;;;1.60;;
8225;SDS011;4154;48.810;9.012;2023-11-19T00:25:18;1.63;;;1.53;;
8225;SDS011;4154;48.810;9.012;2023-11-19T00:27:45;1.40;;;1.30;;
8225;SDS011;4154;48.810;9.012;2023-11-19T00:30:11;1.47;;;1.37;;
8225;SDS011;4154;48.810;9.012;2023-11-19T00:32:38;1.60;;;1.00;;
8225;SDS011;4154;48.810;9.012;2023-11-19T00:35:05;1.73;;;1.10;;
8225;SDS011;4154;48.810;9.012;2023-11-19T00:37:32;2.20;;;0.93;;
8225;SDS011;4154;48.810;9.012;2023-11-19T00:39:58;0.90;;;0.90;;
8225;SDS011;4154;48.810;9.012;2023-11-19T00:42:24;3.00;;;0.70;;
8225;SDS011;4154;48.810;9.012;2023-11-19T00:44:51;0.63;;;0.63;;
8225;SDS011;4154;48.810;9.012;2023-11-19T00:47:17;1.03;;;0.77;;
8225;SDS011;4154;48.810;9.012;2023-11-19T00:49:45;0.93;;;0.60;;
8225;SDS011;4154;48.810;9.012;2023-11-19T00:52:14;0.83;;;0.80;;
8225;SDS011;4154;48.810;9.012;2023-11-19T00:54:40;0.57;;;0.57;;
8225;SDS011;4154;48.810;9.012;2023-11-19T00:57:06;0.73;;;0.73;;
8225;SDS011;4154;48.810;9.012;2023-11-19T00:59:32;0.50;;;0.50;;
8225;SDS011;4154;48.810;9.012;2023-11-19T01:01:57;0.57;;;0.57;;
8225;SDS011;4154;48.810;9.012;2023-11-19T01:04:28;0.70;;;0.70;;
8225;SDS011;4154;48.810;9.012;2023-11-19T01:06:54;0.50;;;0.50;;
8225;SDS011;4154;48.810;9.012;2023-11-19T01:09:20;0.57;;;0.50;;
8225;SDS011;4154;48.810;9.012;2023-11-19T01:11:46;0.60;;;0.60;;
8225;SDS011;4154;48.810;9.012;2023-11-19T01:14:12;0.60;;;0.60;;
8225;SDS011;4154;48.810;9.012;2023-11-19T01:19:07;0.47;;;0.43;;
8225;SDS011;4154;48.810;9.012;2023-11-19T01:21:33;0.60;;;0.60;;
8225;SDS011;4154;48.810;9.012;2023-11-19T01:23:59;1.70;;;0.53;;
8225;SDS011;4154;48.810;9.012;2023-11-19T01:26:25;0.40;;;0.40;;
8225;SDS011;4154;48.810;9.012;2023-11-19T01:28:51;0.60;;;0.60;;
8225;SDS011;4154;48.810;9.012;2023-11-19T01:31:18;0.63;;;0.50;;
8225;SDS011;4154;48.810;9.012;2023-11-19T01:33:44;0.40;;;0.40;;
8225;SDS011;4154;48.810;9.012;2023-11-19T01:36:14;0.40;;;0.40;;
8225;SDS011;4154;48.810;9.012;2023-11-19T01:38:40;0.30;;;0.30;;
8225;SDS011;4154;48.810;9.012;2023-11-19T01:41:06;0.20;;;0.20;;
8225;SDS011;4154;48.810;9.012;2023-11-19T01:43:35;0.47;;;0.47;;
8225;SDS011;4154;48.810;9.012;2023-11-19T01:46:04;0.57;;;0.37;;
8225;SDS011;4154;48.810;9.012;2023-11-19T01:48:34;0.97;;;0.40;;
8225;SDS011;4154;48.810;9.012;2023-11-19T01:51:01;0.30;;;0.30;;
8225;SDS011;4154;48.810;9.012;2023-11-19T01:53:29;0.40;;;0.30;;
8225;SDS011;4154;48.810;9.012;2023-11-19T01:55:56;0.93;;;0.40;;
8225;SDS011;4154;48.810;9.012;2023-11-19T01:58:23;0.40;;;0.30;;
8225;SDS011;4154;48.810;9.012;2023-11-19T02:00:49;0.53;;;0.33;;
8225;SDS011;4154;48.810;9.012;2023-11-19T02:03:15;0.43;;;0.30;;
8225;SDS011;4154;48.810;9.012;2023-11-19T02:05:42;1.43;;;0.40;;
8225;SDS011;4154;48.810;9.012;2023-11-19T02:08:08;0.40;;;0.30;;
8225;SDS011;4154;48.810;9.012;2023-11-19T02:10:34;0.20;;;0.20;;
8225;SDS011;4154;48.810;9.012;2023-11-19T02:13:01;0.60;;;0.30;;
8225;SDS011;4154;48.810;9.012;2023-11-19T02:15:27;0.40;;;0.40;;
8225;SDS011;4154;48.810;9.012;2023-11-19T02:17:53;0.30;;;0.30;;
8225;SDS011;4154;48.810;9.012;2023-11-19T02:20:19;0.30;;;0.30;;
8225;SDS011;4154;48.810;9.012;2023-11-19T02:22:46;0.60;;;0.47;;
8225;SDS011;4154;48.810;9.012;2023-11-19T02:25:30;0.27;;;0.20;;
8225;SDS011;4154;48.810;9.012;2023-11-19T02:27:59;0.30;;;0.27;;
8225;SDS011;4154;48.810;9.012;2023-11-19T02:30:26;0.20;;;0.20;;
8225;SDS011;4154;48.810;9.012;2023-11-19T02:32:54;0.30;;;0.30;;
8225;SDS011;4154;48.810;9.012;2023-11-19T02:35:27;0.20;;;0.20;;
8225;SDS011;4154;48.810;9.012;2023-11-19T02:37:55;0.90;;;0.30;;
8225;SDS011;4154;48.810;9.012;2023-11-19T02:40:21;0.40;;;0.40;;
8225;SDS011;4154;48.810;9.012;2023-11-19T02:42:49;0.30;;;0.30;;
8225;SDS011;4154;48.810;9.012;2023-11-19T02:45:16;0.23;;;0.23;;
8225;SDS011;4154;48.810;9.012;2023-11-19T02:47:42;0.17;;;0.17;;
8225;SDS011;4154;48.810;9.012;2023-11-19T02:50:09;0.30;;;0.30;;
8225;SDS011;4154;48.810;9.012;2023-11-19T02:52:43;0.10;;;0.10;;
8225;SDS011;4154;48.810;9.012;2023-11-19T02:55:10;0.30;;;0.20;;
8225;SDS011;4154;48.810;9.012;2023-11-19T02:57:40;0.40;;;0.30;;
8225;SDS011;4154;48.810;9.012;2023-11-19T03:00:16;0.63;;;0.20;;
8225;SDS011;4154;48.810;9.012;2023-11-19T03:03:12;0.77;;;0.30;;
8225;SDS011;4154;48.810;9.012;2023-11-19T03:05:48;0.13;;;0.13;;
8225;SDS011;4154;48.810;9.012;2023-11-19T03:08:15;0.53;;;0.20;;
8225;SDS011;4154;48.810;9.012;2023-11-19T03:10:41;0.13;;;0.13;;
8225;SDS011;4154;48.810;9.012;2023-11-19T03:13:09;0.33;;;0.33;;
8225;SDS011;4154;48.810;9.012;2023-11-19T03:15:39;0.20;;;0.20;;
8225;SDS011;4154;48.810;9.012;2023-11-19T03:18:05;0.30;;;0.10;;
8225;SDS011;4154;48.810;9.012;2023-11-19T03:20:31;0.10;;;0.10;;
8225;SDS011;4154;48.810;9.012;2023-11-19T03:22:57;0.10;;;0.10;;
8225;SDS011;4154;48.810;9.012;2023-11-19T03:25:24;0.60;;;0.30;;
8225;SDS011;4154;48.810;9.012;2023-11-19T03:27:58;0.10;;;0.10;;
8225;SDS011;4154;48.810;9.012;2023-11-19T03:30:26;0.17;;;0.17;;
8225;SDS011;4154;48.810;9.012;2023-11-19T03:32:53;0.73;;;0.17;;
8225;SDS011;4154;48.810;9.012;2023-11-19T03:35:22;0.30;;;0.30;;
8225;SDS011;4154;48.810;9.012;2023-11-19T03:37:49;0.20;;;0.20;;
8225;SDS011;4154;48.810;9.012;2023-11-19T03:40:16;0.10;;;0.10;;
8225;SDS011;4154;48.810;9.012;2023-11-19T03:42:43;0.93;;;0.20;;
8225;SDS011;4154;48.810;9.012;2023-11-19T03:45:12;0.50;;;0.20;;
8225;SDS011;4154;48.810;9.012;2023-11-19T03:47:38;0.30;;;0.20;;
8225;SDS011;4154;48.810;9.012;2023-11-19T03:50:05;0.20;;;0.20;;
8225;SDS011;4154;48.810;9.012;2023-11-19T03:52:33;0.20;;;0.20;;
8225;SDS011;4154;48.810;9.012;2023-11-19T03:54:58;0.20;;;0.10;;
8225;SDS011;4154;48.810;9.012;2023-11-19T03:57:24;0.20;;;0.17;;
8225;SDS011;4154;48.810;9.012;2023-11-19T03:59:50;1.13;;;0.30;;
8225;SDS011;4154;48.810;9.012;2023-11-19T04:02:16;0.27;;;0.13;;
8225;SDS011;4154;48.810;9.012;2023-11-19T04:04:42;0.10;;;0.10;;
8225;SDS011;4154;48.810;9.012;2023-11-19T04:07:08;0.27;;;0.20;;
8225;SDS011;4154;48.810;9.012;2023-11-19T04:09:34;0.20;;;0.20;;
8225;SDS011;4154;48.810;9.012;2023-11-19T04:12:02;0.53;;;0.20;;
8225;SDS011;4154;48.810;9.012;2023-11-19T04:14:28;0.10;;;0.10;;
8225;SDS011;4154;48.810;9.012;2023-11-19T04:16:55;0.10;;;0.10;;
8225;SDS011;4154;48.810;9.012;2023-11-19T04:19:20;0.20;;;0.20;;
8225;SDS011;4154;48.810;9.012;2023-11-19T04:21:47;0.40;;;0.20;;
8225;SDS011;4154;48.810;9.012;2023-11-19T04:24:13;0.80;;;0.20;;
8225;SDS011;4154;48.810;9.012;2023-11-19T04:26:40;0.10;;;0.10;;
8225;SDS011;4154;48.810;9.012;2023-11-19T04:29:09;0.00;;;0.00;;
8225;SDS011;4154;48.810;9.012;2023-11-19T04:31:36;0.20;;;0.10;;
8225;SDS011;4154;48.810;9.012;2023-11-19T04:34:02;0.27;;;0.10;;
8225;SDS011;4154;48.810;9.012;2023-11-19T04:36:28;0.10;;;0.10;;
8225;SDS011;4154;48.810;9.012;2023-11-19T04:38:54;0.80;;;0.10;;
8225;SDS011;4154;48.810;9.012;2023-11-19T04:41:20;0.10;;;0.10;;
8225;SDS011;4154;48.810;9.012;2023-11-19T04:43:46;0.10;;;0.10;;
8225;SDS011;4154;48.810;9.012;2023-11-19T04:46:12;0.00;;;0.00;;
8225;SDS011;4154;48.810;9.012;2023-11-19T04:48:38;0.10;;;0.10;;
8225;SDS011;4154;48.810;9.012;2023-11-19T04:51:04;0.97;;;0.20;;
8225;SDS011;4154;48.810;9.012;2023-11-19T04:53:30;0.17;;;0.10;;
8225;SDS011;4154;48.810;9.012;2023-11-19T04:55:56;0.10;;;0.10;;
8225;SDS011;4154;48.810;9.012;2023-11-19T04:58:21;0.27;;;0.10;;
8225;SDS011;4154;48.810;9.012;2023-11-19T05:00:47;0.53;;;0.23;;
8225;SDS011;4154;48.810;9.012;2023-11-19T05:03:13;0.20;;;0.20;;
8225;SDS011;4154;48.810;9.012;2023-11-19T05:05:39;0.33;;;0.30;;
8225;SDS011;4154;48.810;9.012;2023-11-19T05:08:04;0.10;;;0.10;;
8225;SDS011;4154;48.810;9.012;2023-11-19T05:10:30;0.10;;;0.10;;
8225;SDS011;4154;48.810;9.012;2023-11-19T05:12:56;0.20;;;0.13;;
8225;SDS011;4154;48.810;9.012;2023-11-19T05:15:22;0.70;;;0.20;;
8225;SDS011;4154;48.810;9.012;2023-11-19T05:17:47;0.10;;;0.10;;
8225;SDS011;4154;48.810;9.012;2023-11-19T05:20:13;0.07;;;0.07;;
8225;SDS011;4154;48.810;9.012;2023-11-19T05:22:39;0.30;;;0.30;;
8225;SDS011;4154;48.810;9.012;2023-11-19T05:25:06;0.10;;;0.10;;
8225;SDS011;4154;48.810;9.012;2023-11-19T05:27:34;0.20;;;0.20;;
8225;SDS011;4154;48.810;9.012;2023-11-19T05:30:01;0.17;;;0.17;;
8225;SDS011;4154;48.810;9.012;2023-11-19T05:32:27;0.17;;;0.10;;
8225;SDS011;4154;48.810;9.012;2023-11-19T05:34:53;0.47;;;0.30;;
8225;SDS011;4154;48.810;9.012;2023-11-19T05:37:19;0.10;;;0.10;;
8225;SDS011;4154;48.810;9.012;2023-11-19T05:39:45;0.30;;;0.30;;
8225;SDS011;4154;48.810;9.012;2023-11-19T05:42:11;0.03;;;0.03;;
8225;SDS011;4154;48.810;9.012;2023-11-19T05:44:37;0.43;;;0.20;;
8225;SDS011;4154;48.810;9.012;2023-11-19T05:47:03;0.73;;;0.30;;
8225;SDS011;4154;48.810;9.012;2023-11-19T05:49:29;0.20;;;0.10;;
8225;SDS011;4154;48.810;9.012;2023-11-19T05:51:55;0.20;;;0.20;;
8225;SDS011;4154;48.810;9.012;2023-11-19T05:54:21;0.10;;;0.10;;
8225;SDS011;4154;48.810;9.012;2023-11-19T05:56:47;0.57;;;0.10;;
8225;SDS011;4154;48.810;9.012;2023-11-19T05:59:14;0.37;;;0.37;;
8225;SDS011;4154;48.810;9.012;2023-11-19T06:01:42;0.43;;;0.43;;
8225;SDS011;4154;48.810;9.012;2023-11-19T06:04:09;0.77;;;0.20;;
8225;SDS011;4154;48.810;9.012;2023-11-19T06:06:35;0.30;;;0.30;;
8225;SDS011;4154;48.810;9.012;2023-11-19T06:09:01;0.30;;;0.30;;
8225;SDS011;4154;48.810;9.012;2023-11-19T06:11:28;0.30;;;0.30;;
8225;SDS011;4154;48.810;9.012;2023-11-19T06:13:54;0.30;;;0.30;;
8225;SDS011;4154;48.810;9.012;2023-11-19T06:16:20;0.40;;;0.20;;
8225;SDS011;4154;48.810;9.012;2023-11-19T06:18:46;0.40;;;0.40;;
8225;SDS011;4154;48.810;9.012;2023-11-19T06:21:12;0.50;;;0.50;;
8225;SDS011;4154;48.810;9.012;2023-11-19T06:23:38;0.23;;;0.23;;
8225;SDS011;4154;48.810;9.012;2023-11-19T06:26:03;0.40;;;0.40;;
8225;SDS011;4154;48.810;9.012;2023-11-19T06:28:30;0.50;;;0.50;;
8225;SDS011;4154;48.810;9.012;2023-11-19T06:30:57;0.60;;;0.60;;
8225;SDS011;4154;48.810;9.012;2023-11-19T06:33:23;0.70;;;0.70;;
8225;SDS011;4154;48.810;9.012;2023-11-19T06:35:50;1.07;;;0.60;;
8225;SDS011;4154;48.810;9.012;2023-11-19T06:38:15;0.50;;;0.50;;
8225;SDS011;4154;48.810;9.012;2023-11-19T06:40:41;0.40;;;0.40;;
8225;SDS011;4154;48.810;9.012;2023-11-19T06:43:07;0.40;;;0.40;;
8225;SDS011;4154;48.810;9.012;2023-11-19T06:45:35;0.30;;;0.30;;
8225;SDS011;4154;48.810;9.012;2023-11-19T06:48:04;1.23;;;0.50;;
8225;SDS011;4154;48.810;9.012;2023-11-19T06:50:30;0.50;;;0.50;;
8225;SDS011;4154;48.810;9.012;2023-11-19T06:52:57;0.50;;;0.40;;
8225;SDS011;4154;48.810;9.012;2023-11-19T06:55:23;0.40;;;0.40;;
8225;SDS011;4154;48.810;9.012;2023-11-19T06:57:48;0.53;;;0.50;;
8225;SDS011;4154;48.810;9.012;2023-11-19T07:00:14;0.40;;;0.40;;
8225;SDS011;4154;48.810;9.012;2023-11-19T07:02:40;1.10;;;0.30;;
8225;SDS011;4154;48.810;9.012;2023-11-19T07:05:06;0.50;;;0.50;;
8225;SDS011;4154;48.810;9.012;2023-11-19T07:07:33;0.40;;;0.40;;
8225;SDS011;4154;48.810;9.012;2023-11-19T07:10:00;0.60;;;0.50;;
8225;SDS011;4154;48.810;9.012;2023-11-19T07:12:27;0.40;;;0.40;;
8225;SDS011;4154;48.810;9.012;2023-11-19T07:14:53;0.53;;;0.53;;
8225;SDS011;4154;48.810;9.012;2023-11-19T07:17:20;0.97;;;0.80;;
8225;SDS011;4154;48.810;9.012;2023-11-19T07:19:49;1.43;;;0.93;;
8225;SDS011;4154;48.810;9.012;2023-11-19T07:22:15;0.90;;;0.90;;
8225;SDS011;4154;48.810;9.012;2023-11-19T07:24:42;0.90;;;0.90;;
8225;SDS011;4154;48.810;9.012;2023-11-19T07:27:08;1.87;;;0.90;;
8225;SDS011;4154;48.810;9.012;2023-11-19T07:29:34;0.57;;;0.57;;
8225;SDS011;4154;48.810;9.012;2023-11-19T07:32:02;1.70;;;0.70;;
8225;SDS011;4154;48.810;9.012;2023-11-19T07:34:30;0.77;;;0.70;;
8225;SDS011;4154;48.810;9.012;2023-11-19T07:36:55;0.90;;;0.83;;
8225;SDS011;4154;48.810;9.012;2023-11-19T07:39:27;0.60;;;0.60;;
8225;SDS011;4154;48.810;9.012;2023-11-19T07:41:53;2.17;;;0.70;;
8225;SDS011;4154;48.810;9.012;2023-11-19T07:44:19;0.70;;;0.70;;
8225;SDS011;4154;48.810;9.012;2023-11-19T07:46:46;0.73;;;0.73;;
8225;SDS011;4154;48.810;9.012;2023-11-19T07:49:13;0.60;;;0.60;;
8225;SDS011;4154;48.810;9.012;2023-11-19T07:51:39;0.60;;;0.60;;
8225;SDS011;4154;48.810;9.012;2023-11-19T07:54:05;0.77;;;0.70;;
8225;SDS011;4154;48.810;9.012;2023-11-19T07:56:34;1.10;;;0.90;;
8225;SDS011;4154;48.810;9.012;2023-11-19T07:59:00;1.35;;;0.90;;
8225;SDS011;4154;48.810;9.012;2023-11-19T08:01:27;2.33;;;1.03;;
8225;SDS011;4154;48.810;9.012;2023-11-19T08:03:53;1.07;;;0.97;;
8225;SDS011;4154;48.810;9.012;2023-11-19T08:06:18;0.80;;;0.80;;
8225;SDS011;4154;48.810;9.012;2023-11-19T08:08:44;0.90;;;0.70;;
8225;SDS011;4154;48.810;9.012;2023-11-19T08:11:10;0.70;;;0.70;;
8225;SDS011;4154;48.810;9.012;2023-11-19T08:13:35;1.07;;;0.97;;
8225;SDS011;4154;48.810;9.012;2023-11-19T08:16:01;1.73;;;0.80;;
8225;SDS011;4154;48.810;9.012;2023-11-19T08:18:27;0.67;;;0.67;;
8225;SDS011;4154;48.810;9.012;2023-11-19T08:20:53;0.60;;;0.60;;
8225;SDS011;4154;48.810;9.012;2023-11-19T08:23:19;0.70;;;0.70;;
8225;SDS011;4154;48.810;9.012;2023-11-19T08:25:45;0.70;;;0.70;;
8225;SDS011;4154;48.810;9.012;2023-11-19T08:28:11;1.07;;;0.67;;
8225;SDS011;4154;48.810;9.012;2023-11-19T08:30:37;0.80;;;0.80;;
8225;SDS011;4154;48.810;9.012;2023-11-19T08:33:03;0.70;;;0.70;;
8225;SDS011;4154;48.810;9.012;2023-11-19T08:35:31;0.93;;;0.67;;
8225;SDS011;4154;48.810;9.012;2023-11-19T08:37:57;1.40;;;0.57;;
8225;SDS011;4154;48.810;9.012;2023-11-19T08:40:24;0.60;;;0.60;;
8225;SDS011;4154;48.810;9.012;2023-11-19T08:42:51;0.70;;;0.70;;
8225;SDS011;4154;48.810;9.012;2023-11-19T08:45:16;0.80;;;0.80;;
8225;SDS011;4154;48.810;9.012;2023-11-19T08:47:42;0.90;;;0.90;;
8225;SDS011;4154;48.810;9.012;2023-11-19T08:50:10;0.80;;;0.80;;
8225;SDS011;4154;48.810;9.012;2023-11-19T08:52:37;3.00;;;1.20;;
8225;SDS011;4154;48.810;9.012;2023-11-19T08:55:03;1.17;;;0.80;;
8225;SDS011;4154;48.810;9.012;2023-11-19T08:57:30;1.00;;;0.83;;
8225;SDS011;4154;48.810;9.012;2023-11-19T08:59:57;0.80;;;0.80;;
8225;SDS011;4154;48.810;9.012;2023-11-19T09:02:24;1.03;;;0.93;;
8225;SDS011;4154;48.810;9.012;2023-11-19T09:04:50;1.07;;;1.00;;
8225;SDS011;4154;48.810;9.012;2023-11-19T09:07:16;0.77;;;0.77;;
8225;SDS011;4154;48.810;9.012;2023-11-19T09:09:42;2.40;;;1.10;;
8225;SDS011;4154;48.810;9.012;2023-11-19T09:12:08;0.90;;;0.80;;
8225;SDS011;4154;48.810;9.012;2023-11-19T09:14:34;0.97;;;0.77;;
8225;SDS011;4154;48.810;9.012;2023-11-19T09:17:00;0.80;;;0.80;;
8225;SDS011;4154;48.810;9.012;2023-11-19T09:19:25;1.05;;;0.75;;
8225;SDS011;4154;48.810;9.012;2023-11-19T09:21:52;0.88;;;0.75;;
8225;SDS011;4154;48.810;9.012;2023-11-19T09:24:19;0.97;;;0.83;;
8225;SDS011;4154;48.810;9.012;2023-11-19T09:26:44;1.48;;;1.30;;
8225;SDS011;4154;48.810;9.012;2023-11-19T09:29:10;1.00;;;1.00;;
8225;SDS011;4154;48.810;9.012;2023-11-19T09:31:39;1.20;;;1.10;;
8225;SDS011;4154;48.810;9.012;2023-11-19T09:34:05;1.33;;;1.10;;
8225;SDS011;4154;48.810;9.012;2023-11-19T09:36:31;1.30;;;1.20;;
8225;SDS011;4154;48.810;9.012;2023-11-19T09:38:57;1.70;;;1.10;;
8225;SDS011;4154;48.810;9.012;2023-11-19T09:41:24;1.20;;;1.10;;
8225;SDS011;4154;48.810;9.012;2023-11-19T09:43:52;1.85;;;1.10;;
8225;SDS011;4154;48.810;9.012;2023-11-19T09:46:18;1.20;;;1.10;;
8225;SDS011;4154;48.810;9.012;2023-11-19T09:48:49;2.03;;;1.30;;
8225;SDS011;4154;48.810;9.012;2023-11-19T09:51:19;2.17;;;1.00;;
8225;SDS011;4154;48.810;9.012;2023-11-19T09:53:47;1.10;;;1.00;;
8225;SDS011;4154;48.810;9.012;2023-11-19T09:56:14;1.00;;;0.80;;
8225;SDS011;4154;48.810;9.012;2023-11-19T09:58:41;0.57;;;0.57;;
8225;SDS011;4154;48.810;9.012;2023-11-19T10:01:07;1.42;;;0.80;;
8225;SDS011;4154;48.810;9.012;2023-11-19T10:03:37;1.60;;;1.08;;
8225;SDS011;4154;48.810;9.012;2023-11-19T10:06:08;1.38;;;0.77;;
8225;SDS011;4154;48.810;9.012;2023-11-19T10:08:38;1.23;;;0.82;;
8225;SDS011;4154;48.810;9.012;2023-11-19T10:11:07;1.05;;;0.60;;
8225;SDS011;4154;48.810;9.012;2023-11-19T10:13:34;0.77;;;0.68;;
8225;SDS011;4154;48.810;9.012;2023-11-19T10:16:07;0.60;;;0.60;;
8225;SDS011;4154;48.810;9.012;2023-11-19T10:18:36;0.90;;;0.60;;
8225;SDS011;4154;48.810;9.012;2023-11-19T10:21:03;1.05;;;0.90;;
8225;SDS011;4154;48.810;9.012;2023-11-19T10:23:31;1.83;;;0.60;;
8225;SDS011;4154;48.810;9.012;2023-11-19T10:26:12;1.65;;;0.70;;
8225;SDS011;4154;48.810;9.012;2023-11-19T10:28:40;1.17;;;0.70;;
8225;SDS011;4154;48.810;9.012;2023-11-19T10:31:09;0.85;;;0.60;;
8225;SDS011;4154;48.810;9.012;2023-11-19T10:33:34;0.95;;;0.40;;
8225;SDS011;4154;48.810;9.012;2023-11-19T10:36:00;0.52;;;0.52;;
8225;SDS011;4154;48.810;9.012;2023-11-19T10:38:26;1.38;;;0.40;;
8225;SDS011;4154;48.810;9.012;2023-11-19T10:40:52;0.90;;;0.40;;
8225;SDS011;4154;48.810;9.012;2023-11-19T10:43:20;1.00;;;0.50;;
8225;SDS011;4154;48.810;9.012;2023-11-19T10:45:50;1.30;;;0.60;;
8225;SDS011;4154;48.810;9.012;2023-11-19T10:48:17;3.35;;;0.80;;
8225;SDS011;4154;48.810;9.012;2023-11-19T10:50:44;0.90;;;0.50;;
8225;SDS011;4154;48.810;9.012;2023-11-19T10:53:11;0.93;;;0.70;;
8225;SDS011;4154;48.810;9.012;2023-11-19T10:55:41;0.63;;;0.60;;
8225;SDS011;4154;48.810;9.012;2023-11-19T10:58:12;1.25;;;0.60;;
8225;SDS011;4154;48.810;9.012;2023-11-19T11:00:44;1.15;;;0.90;;
8225;SDS011;4154;48.810;9.012;2023-11-19T11:03:17;0.60;;;0.50;;
8225;SDS011;4154;48.810;9.012;2023-11-19T11:05:49;2.03;;;0.75;;
8225;SDS011;4154;48.810;9.012;2023-11-19T11:08:17;0.73;;;0.43;;
8225;SDS011;4154;48.810;9.012;2023-11-19T11:10:51;0.82;;;0.70;;
8225;SDS011;4154;48.810;9.012;2023-11-19T11:13:19;1.15;;;0.77;;
8225;SDS011;4154;48.810;9.012;2023-11-19T11:15:50;1.52;;;0.60;;
8225;SDS011;4154;48.810;9.012;2023-11-19T11:18:16;0.93;;;0.80;;
8225;SDS011;4154;48.810;9.012;2023-11-19T11:20:45;0.85;;;0.73;;
8225;SDS011;4154;48.810;9.012;2023-11-19T11:23:18;1.10;;;0.77;;
8225;SDS011;4154;48.810;9.012;2023-11-19T11:28:41;1.90;;;0.90;;
8225;SDS011;4154;48.810;9.012;2023-11-19T11:37:43;0.93;;;0.75;;
8225;SDS011;4154;48.810;9.012;2023-11-19T11:40:15;2.20;;;1.00;;
8225;SDS011;4154;48.810;9.012;2023-11-19T11:42:43;1.27;;;0.70;;
8225;SDS011;4154;48.810;9.012;2023-11-19T11:45:10;1.50;;;0.85;;
8225;SDS011;4154;48.810;9.012;2023-11-19T11:50:11;1.05;;;0.80;;
8225;SDS011;4154;48.810;9.012;2023-11-19T11:58:20;0.95;;;0.60;;
8225;SDS011;4154;48.810;9.012;2023-11-19T12:00:50;0.77;;;0.60;;
8225;SDS011;4154;48.810;9.012;2023-11-19T12:03:19;1.35;;;0.65;;
8225;SDS011;4154;48.810;9.012;2023-11-19T12:05:47;1.17;;;0.70;;
8225;SDS011;4154;48.810;9.012;2023-11-19T12:08:14;1.17;;;0.70;;
8225;SDS011;4154;48.810;9.012;2023-11-19T12:10:46;1.85;;;0.77;;
8225;SDS011;4154;48.810;9.012;2023-11-19T12:13:14;2.97;;;0.70;;
8225;SDS011;4154;48.810;9.012;2023-11-19T12:18:23;1.35;;;1.00;;
8225;SDS011;4154;48.810;9.012;2023-11-19T12:20:54;0.82;;;0.63;;
8225;SDS011;4154;48.810;9.012;2023-11-19T12:23:21;1.13;;;0.60;;
8225;SDS011;4154;48.810;9.012;2023-11-19T12:25:50;1.40;;;0.90;;
8225;SDS011;4154;48.810;9.012;2023-11-19T12:28:16;1.20;;;0.65;;
8225;SDS011;4154;48.810;9.012;2023-11-19T12:30:42;1.15;;;0.70;;
8225;SDS011;4154;48.810;9.012;2023-11-19T12:33:12;0.93;;;0.60;;
8225;SDS011;4154;48.810;9.012;2023-11-19T12:35:42;2.67;;;1.00;;
8225;SDS011;4154;48.810;9.012;2023-11-19T12:38:25;1.92;;;0.75;;
8225;SDS011;4154;48.810;9.012;2023-11-19T12:43:38;1.40;;;0.52;;
8225;SDS011;4154;48.810;9.012;2023-11-19T12:46:17;0.73;;;0.60;;
8225;SDS011;4154;48.810;9.012;2023-11-19T12:48:47;0.88;;;0.68;;
8225;SDS011;4154;48.810;9.012;2023-11-19T12:51:14;1.83;;;0.73;;
8225;SDS011;4154;48.810;9.012;2023-11-19T12:53:50;1.20;;;0.60;;
8225;SDS011;4154;48.810;9.012;2023-11-19T12:56:20;1.05;;;0.60;;
8225;SDS011;4154;48.810;9.012;2023-11-19T12:58:46;1.52;;;0.77;;
8225;SDS011;4154;48.810;9.012;2023-11-19T13:01:19;1.50;;;0.80;;
8225;SDS011;4154;48.810;9.012;2023-11-19T13:03:46;1.67;;;0.50;;
8225;SDS011;4154;48.810;9.012;2023-11-19T13:06:13;2.33;;;1.00;;
8225;SDS011;4154;48.810;9.012;2023-11-19T13:08:46;1.02;;;0.60;;
8225;SDS011;4154;48.810;9.012;2023-11-19T13:11:15;1.30;;;0.68;;
8225;SDS011;4154;48.810;9.012;2023-11-19T13:14:00;2.60;;;1.00;;
8225;SDS011;4154;48.810;9.012;2023-11-19T13:16:29;0.93;;;0.60;;
8225;SDS011;4154;48.810;9.012;2023-11-19T13:18:56;2.15;;;0.80;;
8225;SDS011;4154;48.810;9.012;2023-11-19T13:21:24;0.88;;;0.70;;
8225;SDS011;4154;48.810;9.012;2023-11-19T13:23:50;0.70;;;0.70;;
8225;SDS011;4154;48.810;9.012;2023-11-19T13:26:15;0.60;;;0.60;;
8225;SDS011;4154;48.810;9.012;2023-11-19T13:28:41;2.00;;;0.55;;
8225;SDS011;4154;48.810;9.012;2023-11-19T13:31:07;0.77;;;0.40;;
8225;SDS011;4154;48.810;9.012;2023-11-19T13:33:33;1.70;;;0.88;;
8225;SDS011;4154;48.810;9.012;2023-11-19T13:35:59;4.18;;;1.15;;
8225;SDS011;4154;48.810;9.012;2023-11-19T13:38:30;1.77;;;0.80;;
8225;SDS011;4154;48.810;9.012;2023-11-19T13:41:05;2.15;;;0.88;;
8225;SDS011;4154;48.810;9.012;2023-11-19T13:43:31;1.27;;;0.60;;
8225;SDS011;4154;48.810;9.012;2023-11-19T13:45:57;2.13;;;0.80;;
8225;SDS011;4154;48.810;9.012;2023-11-19T13:48:23;0.70;;;0.70;;
8225;SDS011;4154;48.810;9.012;2023-11-19T13:50:49;0.80;;;0.70;;
8225;SDS011;4154;48.810;9.012;2023-11-19T13:53:15;0.50;;;0.50;;
8225;SDS011;4154;48.810;9.012;2023-11-19T13:55:42;1.73;;;0.90;;
8225;SDS011;4154;48.810;9.012;2023-11-19T13:58:08;1.13;;;0.82;;
8225;SDS011;4154;48.810;9.012;2023-11-19T14:00:35;0.70;;;0.70;;
8225;SDS011;4154;48.810;9.012;2023-11-19T14:03:00;1.42;;;0.85;;
8225;SDS011;4154;48.810;9.012;2023-11-19T14:05:26;1.83;;;0.70;;
8225;SDS011;4154;48.810;9.012;2023-11-19T14:07:51;2.35;;;0.90;;
8225;SDS011;4154;48.810;9.012;2023-11-19T14:10:18;1.20;;;0.80;;
8225;SDS011;4154;48.810;9.012;2023-11-19T14:12:44;1.40;;;0.70;;
8225;SDS011;4154;48.810;9.012;2023-11-19T14:15:10;1.35;;;0.65;;
8225;SDS011;4154;48.810;9.012;2023-11-19T14:17:39;0.98;;;0.85;;
8225;SDS011;4154;48.810;9.012;2023-11-19T14:20:05;2.30;;;0.80;;
8225;SDS011;4154;48.810;9.012;2023-11-19T14:22:44;2.65;;;0.80;;
8225;SDS011;4154;48.810;9.012;2023-11-19T14:25:14;1.20;;;0.70;;
8225;SDS011;4154;48.810;9.012;2023-11-19T14:27:40;1.40;;;0.70;;
8225;SDS011;4154;48.810;9.012;2023-11-19T14:30:08;1.65;;;0.80;;
8225;SDS011;4154;48.810;9.012;2023-11-19T14:32:36;1.17;;;0.70;;
8225;SDS011;4154;48.810;9.012;2023-11-19T14:35:03;0.88;;;0.70;;
8225;SDS011;4154;48.810;9.012;2023-11-19T14:37:30;1.48;;;0.80;;
8225;SDS011;4154;48.810;9.012;2023-11-19T14:39:56;1.25;;;1.08;;
8225;SDS011;4154;48.810;9.012;2023-11-19T14:42:23;1.55;;;1.13;;
8225;SDS011;4154;48.810;9.012;2023-11-19T14:44:50;1.63;;;1.00;;
8225;SDS011;4154;48.810;9.012;2023-11-19T14:47:20;1.10;;;1.00;;
8225;SDS011;4154;48.810;9.012;2023-11-19T14:49:46;1.25;;;1.15;;
8225;SDS011;4154;48.810;9.012;2023-11-19T14:52:12;1.15;;;0.80;;
8225;SDS011;4154;48.810;9.012;2023-11-19T14:54:38;0.90;;;0.80;;
8225;SDS011;4154;48.810;9.012;2023-11-19T14:57:05;1.20;;;0.80;;
8225;SDS011;4154;48.810;9.012;2023-11-19T14:59:33;1.42;;;0.80;;
8225;SDS011;4154;48.810;9.012;2023-11-19T15:02:02;1.30;;;0.98;;
8225;SDS011;4154;48.810;9.012;2023-11-19T15:04:29;1.40;;;0.70;;
8225;SDS011;4154;48.810;9.012;2023-11-19T15:06:58;1.45;;;0.80;;
8225;SDS011;4154;48.810;9.012;2023-11-19T15:09:25;2.35;;;0.80;;
8225;SDS011;4154;48.810;9.012;2023-11-19T15:11:53;1.40;;;0.77;;
8225;SDS011;4154;48.810;9.012;2023-11-19T15:14:19;0.73;;;0.65;;
8225;SDS011;4154;48.810;9.012;2023-11-19T15:16:45;1.25;;;0.75;;
8225;SDS011;4154;48.810;9.012;2023-11-19T15:19:12;0.85;;;0.60;;
8225;SDS011;4154;48.810;9.012;2023-11-19T15:21:39;0.90;;;0.75;;
8225;SDS011;4154;48.810;9.012;2023-11-19T15:24:10;1.33;;;0.50;;
8225;SDS011;4154;48.810;9.012;2023-11-19T15:26:36;0.90;;;0.80;;
8225;SDS011;4154;48.810;9.012;2023-11-19T15:29:03;0.57;;;0.57;;
8225;SDS011;4154;48.810;9.012;2023-11-19T15:31:30;1.02;;;0.70;;
8225;SDS011;4154;48.810;9.012;2023-11-19T15:33:56;1.30;;;0.73;;
8225;SDS011;4154;48.810;9.012;2023-11-19T15:36:22;2.40;;;1.05;;
8225;SDS011;4154;48.810;9.012;2023-11-19T15:38:49;1.02;;;0.88;;
8225;SDS011;4154;48.810;9.012;2023-11-19T15:41:15;0.90;;;0.77;;